Time;durP1;ratioP1;P1;durP2;ratioP2;P2;SDS_P1;SDS_P2;PMS_P1;PMS_P2;Temp;Humidity;BMP_temperature;BMP_pressure;BME280_temperature;BME280_humidity;BME280_pressure;Samples;Min_cycle;Max_cycle;Signal;HPM_P1;HPM_P2
2023/05/24 00:00:31;;;;;;;8.80;2.72;;;13.60;58.20;;;;;;5071297;28;20055;-63
2023/05/24 00:02:57;;;;;;;10.95;2.55;;;13.60;58.40;;;;;;5072390;28;20098;-63
2023/05/24 00:05:23;;;;;;;9.02;2.63;;;13.60;58.50;;;;;;5072505;28;20026;-63
2023/05/24 00:07:49;;;;;;;9.90;2.80;;;13.50;58.60;;;;;;5070366;28;20032;-63
2023/05/24 00:10:15;;;;;;;11.98;3.17;;;13.50;58.70;;;;;;5069998;28;20111;-63
2023/05/24 00:12:41;;;;;;;12.10;3.28;;;13.50;58.80;;;;;;5073294;28;20421;-63
2023/05/24 00:15:07;;;;;;;9.60;2.38;;;13.50;58.90;;;;;;5068574;28;20350;-63
2023/05/24 00:17:39;;;;;;;9.73;2.47;;;13.50;59.00;;;;;;5066801;28;20025;-63
2023/05/24 00:20:09;;;;;;;8.45;2.85;;;13.50;59.10;;;;;;5072650;28;20127;-63
2023/05/24 00:22:35;;;;;;;12.23;2.65;;;13.40;59.10;;;;;;5072306;28;20035;-63
2023/05/24 00:25:01;;;;;;;16.55;3.25;;;13.40;59.20;;;;;;5073695;28;20447;-63
2023/05/24 00:27:27;;;;;;;11.50;3.20;;;13.30;59.30;;;;;;5064450;28;20108;-63
2023/05/24 00:29:52;;;;;;;14.73;3.65;;;13.30;59.30;;;;;;5065269;28;20032;-63
2023/05/24 00:32:20;;;;;;;8.45;2.83;;;13.30;59.40;;;;;;5067949;28;20063;-63
2023/05/24 00:34:46;;;;;;;11.23;2.45;;;13.30;59.50;;;;;;5071265;28;20020;-63
2023/05/24 00:37:11;;;;;;;10.50;2.63;;;13.20;59.60;;;;;;5063852;28;20085;-63
2023/05/24 00:39:37;;;;;;;9.27;2.72;;;13.20;59.60;;;;;;5053677;28;20040;-63
2023/05/24 00:42:03;;;;;;;9.23;2.40;;;13.10;59.70;;;;;;5071269;28;20036;-63
2023/05/24 00:44:30;;;;;;;8.57;2.28;;;13.10;59.80;;;;;;5071820;28;20327;-63
2023/05/24 00:46:56;;;;;;;8.90;2.63;;;13.10;59.90;;;;;;5063615;28;20025;-63
2023/05/24 00:49:22;;;;;;;15.52;3.03;;;13.00;60.00;;;;;;5053545;28;20029;-63
2023/05/24 00:51:50;;;;;;;11.30;2.97;;;13.00;60.00;;;;;;5071686;28;20054;-63
2023/05/24 00:54:16;;;;;;;11.68;2.65;;;13.00;60.10;;;;;;5073206;28;20021;-63
2023/05/24 00:56:45;;;;;;;10.50;2.38;;;12.90;60.20;;;;;;5067649;28;20017;-63
2023/05/24 00:59:10;;;;;;;10.10;2.65;;;12.90;60.40;;;;;;5065038;28;20041;-63
2023/05/24 01:01:37;;;;;;;10.23;2.85;;;12.90;60.40;;;;;;5056386;28;20017;-63
2023/05/24 01:04:04;;;;;;;13.57;2.90;;;12.90;61.30;;;;;;5076924;28;20075;-63
2023/05/24 01:06:35;;;;;;;11.48;2.30;;;12.90;60.70;;;;;;5072605;28;20415;-63
2023/05/24 01:09:18;;;;;;;13.37;3.10;;;12.90;60.80;;;;;;5075989;28;20532;-63
2023/05/24 01:12:02;;;;;;;9.57;2.28;;;12.90;60.90;;;;;;5058517;28;20286;-63
2023/05/24 01:14:58;;;;;;;10.18;2.47;;;12.80;60.90;;;;;;5076746;28;20025;-63
2023/05/24 01:17:37;;;;;;;8.88;2.22;;;12.80;60.90;;;;;;5069331;28;20029;-63
2023/05/24 01:20:07;;;;;;;10.95;2.78;;;12.80;61.10;;;;;;5069086;28;20024;-63
2023/05/24 01:22:57;;;;;;;9.43;2.72;;;12.70;61.20;;;;;;5074386;28;20118;-63
2023/05/24 01:25:43;;;;;;;;;;;12.80;61.40;;;;;;5076258;28;20064;-63
2023/05/24 01:28:11;;;;;;;9.82;2.15;;;12.70;61.30;;;;;;5070213;28;19915;-63
2023/05/24 01:30:41;;;;;;;10.77;2.63;;;12.70;61.50;;;;;;5074232;28;20036;-62
2023/05/24 01:33:07;;;;;;;8.77;2.47;;;12.70;61.60;;;;;;5075754;28;20040;-63
2023/05/24 01:35:39;;;;;;;13.15;2.33;;;12.70;61.80;;;;;;5075743;28;20039;-63
2023/05/24 01:38:09;;;;;;;9.30;2.75;;;12.60;61.90;;;;;;5074629;28;20472;-63
2023/05/24 01:40:36;;;;;;;13.27;2.65;;;12.60;61.90;;;;;;5075571;28;20460;-63
2023/05/24 01:43:04;;;;;;;10.80;2.70;;;12.60;62.00;;;;;;5075068;28;20136;-63
2023/05/24 01:45:43;;;;;;;9.00;2.33;;;12.60;62.00;;;;;;5074963;28;20073;-63
2023/05/24 01:48:17;;;;;;;8.55;2.53;;;12.60;62.10;;;;;;5073508;28;20085;-63
2023/05/24 01:50:51;;;;;;;11.10;2.88;;;12.60;62.20;;;;;;5074796;28;20032;-63
2023/05/24 01:53:19;;;;;;;10.35;2.88;;;12.50;62.20;;;;;;5068213;28;20353;-63
2023/05/24 01:55:47;;;;;;;11.75;2.45;;;12.60;62.30;;;;;;5076358;28;20346;-63
2023/05/24 01:58:16;;;;;;;11.90;2.88;;;12.50;62.30;;;;;;5070116;28;20100;-63
2023/05/24 02:00:43;;;;;;;13.52;3.08;;;12.50;62.20;;;;;;5060809;28;20029;-63
2023/05/24 02:03:09;;;;;;;14.23;2.83;;;12.50;62.30;;;;;;5067025;28;20036;-63
2023/05/24 02:05:36;;;;;;;9.20;2.65;;;12.50;62.30;;;;;;5074693;28;20043;-63
2023/05/24 02:08:05;;;;;;;12.30;3.55;;;12.50;62.30;;;;;;5069812;28;20032;-63
2023/05/24 02:10:30;;;;;;;9.90;2.80;;;12.40;62.30;;;;;;5074303;28;20107;-63
2023/05/24 02:12:58;;;;;;;10.52;3.08;;;12.40;62.40;;;;;;5074022;28;20483;-63
2023/05/24 02:15:25;;;;;;;10.30;3.03;;;12.40;62.40;;;;;;5075945;28;20276;-63
2023/05/24 02:17:53;;;;;;;10.52;2.95;;;12.40;62.50;;;;;;5066914;28;20056;-63
2023/05/24 02:20:21;;;;;;;11.00;2.85;;;12.30;62.40;;;;;;5068437;28;20082;-63
2023/05/24 02:22:47;;;;;;;9.65;2.53;;;12.30;62.60;;;;;;5069834;28;20148;-63
2023/05/24 02:25:13;;;;;;;11.15;2.40;;;12.30;62.70;;;;;;5058823;28;20100;-62
2023/05/24 02:27:40;;;;;;;12.30;2.92;;;12.30;62.80;;;;;;5046983;28;20525;-62
2023/05/24 02:30:07;;;;;;;8.82;2.38;;;12.30;62.80;;;;;;5073788;28;20035;-62
2023/05/24 02:32:35;;;;;;;15.23;3.40;;;12.30;62.90;;;;;;5072875;28;20442;-62
2023/05/24 02:35:01;;;;;;;11.32;2.85;;;12.30;63.00;;;;;;5075650;28;20021;-62
2023/05/24 02:37:27;;;;;;;12.70;2.88;;;12.20;63.10;;;;;;5073518;28;20036;-62
2023/05/24 02:39:53;;;;;;;7.95;2.15;;;12.20;63.20;;;;;;5059880;28;20357;-62
2023/05/24 02:42:19;;;;;;;9.20;2.58;;;12.20;63.30;;;;;;5056654;28;20031;-62
2023/05/24 02:44:48;;;;;;;10.35;3.05;;;12.10;63.30;;;;;;5073520;28;20027;-62
2023/05/24 02:47:14;;;;;;;9.27;2.65;;;12.10;63.40;;;;;;5075360;28;20040;-62
2023/05/24 02:49:40;;;;;;;11.98;3.38;;;12.10;63.50;;;;;;5056832;28;20040;-62
2023/05/24 02:52:06;;;;;;;10.77;2.75;;;12.10;63.50;;;;;;5064130;28;20017;-62
2023/05/24 02:54:32;;;;;;;8.25;2.25;;;12.20;63.60;;;;;;5073756;28;20016;-62
2023/05/24 02:56:57;;;;;;;9.63;2.75;;;12.10;63.60;;;;;;5060474;28;20016;-62
2023/05/24 02:59:24;;;;;;;10.80;2.80;;;12.20;63.70;;;;;;5060227;28;20016;-62
2023/05/24 03:01:50;;;;;;;11.35;2.60;;;12.10;63.70;;;;;;5050154;28;20029;-62
2023/05/24 03:04:16;;;;;;;10.90;2.80;;;12.10;63.80;;;;;;5066412;28;20032;-62
2023/05/24 03:06:41;;;;;;;14.65;3.00;;;12.10;63.90;;;;;;5065267;28;20024;-62
2023/05/24 03:09:08;;;;;;;10.23;2.85;;;12.10;64.00;;;;;;5055733;28;20033;-62
2023/05/24 03:11:33;;;;;;;10.73;2.67;;;12.10;64.10;;;;;;5072529;28;20021;-62
2023/05/24 03:13:59;;;;;;;8.95;2.70;;;12.10;64.20;;;;;;5064112;28;20499;-62
2023/05/24 03:16:25;;;;;;;8.68;2.50;;;12.10;65.00;;;;;;5072891;28;20103;-62
2023/05/24 03:18:54;;;;;;;10.95;2.80;;;12.10;64.40;;;;;;5051889;28;20020;-62
2023/05/24 03:21:20;;;;;;;15.57;3.67;;;12.10;64.50;;;;;;5064677;28;20028;-62
2023/05/24 03:23:46;;;;;;;9.52;3.20;;;12.10;64.50;;;;;;5068589;28;20377;-62
2023/05/24 03:26:12;;;;;;;13.52;3.78;;;12.10;64.60;;;;;;5065986;28;20029;-62
2023/05/24 03:28:39;;;;;;;11.45;2.80;;;12.10;64.60;;;;;;5070770;28;20034;-62
2023/05/24 03:31:06;;;;;;;12.13;2.78;;;12.10;64.70;;;;;;5060953;28;20173;-62
2023/05/24 03:33:32;;;;;;;8.88;2.55;;;12.10;64.70;;;;;;5070727;28;20080;-62
2023/05/24 03:35:59;;;;;;;11.18;3.22;;;12.10;64.90;;;;;;5072107;28;20060;-62
2023/05/24 03:38:25;;;;;;;8.25;2.75;;;12.00;64.90;;;;;;5086871;28;20020;-62
2023/05/24 03:40:50;;;;;;;10.38;3.47;;;12.00;65.00;;;;;;5070467;28;20428;-62
2023/05/24 03:43:17;;;;;;;7.88;2.78;;;12.00;65.10;;;;;;5069938;28;20476;-62
2023/05/24 03:46:11;;;;;;;8.50;2.83;;;12.00;65.10;;;;;;5070238;28;20395;-63
2023/05/24 03:48:36;;;;;;;8.13;2.65;;;12.00;65.10;;;;;;5049224;28;20017;-63
2023/05/24 03:51:03;;;;;;;15.25;4.00;;;12.00;65.10;;;;;;5065809;28;20129;-63
2023/05/24 03:53:29;;;;;;;9.35;3.20;;;12.00;65.20;;;;;;5063310;28;20112;-62
2023/05/24 03:55:55;;;;;;;12.15;3.88;;;12.00;65.20;;;;;;5054971;28;20104;-63
2023/05/24 03:58:21;;;;;;;11.65;3.20;;;12.00;65.30;;;;;;5059869;28;20028;-63
2023/05/24 04:00:47;;;;;;;10.40;3.72;;;12.00;65.30;;;;;;5061483;28;20029;-62
2023/05/24 04:03:13;;;;;;;10.63;3.13;;;12.00;65.40;;;;;;5068854;28;20067;-62
2023/05/24 04:05:39;;;;;;;9.48;3.15;;;12.00;65.40;;;;;;5057711;28;20036;-63
2023/05/24 04:08:05;;;;;;;7.88;2.67;;;12.00;65.50;;;;;;5059423;28;20029;-62
2023/05/24 04:10:31;;;;;;;9.35;3.08;;;12.00;65.60;;;;;;5055657;28;20040;-63
2023/05/24 04:12:56;;;;;;;12.10;3.35;;;12.00;65.70;;;;;;5064575;28;20016;-63
2023/05/24 04:15:23;;;;;;;10.93;3.50;;;12.10;65.80;;;;;;5059268;28;20505;-63
2023/05/24 04:17:53;;;;;;;10.02;3.47;;;12.10;65.90;;;;;;5057307;28;20025;-62
2023/05/24 04:20:24;;;;;;;;;;;12.10;66.00;;;;;;5054017;28;20071;-63
2023/05/24 04:22:52;;;;;;;12.55;3.20;;;12.00;65.90;;;;;;5068526;28;20396;-62
2023/05/24 04:25:19;;;;;;;11.85;3.78;;;12.00;66.00;;;;;;5056622;28;20029;-63
2023/05/24 04:27:47;;;;;;;8.18;3.47;;;12.00;66.10;;;;;;5067047;28;20017;-63
2023/05/24 04:30:17;;;;;;;14.05;4.05;;;12.10;66.30;;;;;;5051442;28;20474;-63
2023/05/24 04:32:46;;;;;;;12.63;4.22;;;12.10;66.40;;;;;;5067993;28;20048;-62
2023/05/24 04:35:12;;;;;;;10.30;3.35;;;12.10;66.50;;;;;;5056666;28;20057;-63
2023/05/24 04:37:39;;;;;;;11.75;3.92;;;12.10;66.50;;;;;;5066542;28;20021;-63
2023/05/24 04:40:06;;;;;;;13.32;3.88;;;12.20;66.60;;;;;;5050700;28;20037;-63
2023/05/24 04:42:33;;;;;;;13.48;4.13;;;12.20;66.70;;;;;;5065779;28;20346;-62
2023/05/24 04:44:59;;;;;;;9.90;3.50;;;12.30;66.80;;;;;;5049100;28;20117;-63
2023/05/24 04:47:25;;;;;;;12.07;3.88;;;12.20;66.80;;;;;;5063649;28;20108;-64
2023/05/24 04:49:51;;;;;;;11.30;3.85;;;12.30;66.90;;;;;;5049154;28;20110;-62
2023/05/24 04:52:17;;;;;;;10.25;3.35;;;12.40;66.90;;;;;;5061684;28;20107;-62
2023/05/24 04:54:43;;;;;;;9.70;3.90;;;12.50;66.90;;;;;;5058962;28;20057;-62
2023/05/24 04:57:09;;;;;;;13.73;4.25;;;12.50;66.80;;;;;;5037383;28;20093;-62
2023/05/24 04:59:35;;;;;;;11.68;4.05;;;12.50;66.70;;;;;;5037035;28;20033;-62
2023/05/24 05:02:00;;;;;;;13.77;4.60;;;12.60;66.80;;;;;;5031917;28;20418;-62
2023/05/24 05:04:26;;;;;;;11.73;3.78;;;12.60;66.80;;;;;;5042540;28;20458;-62
2023/05/24 05:06:52;;;;;;;10.82;3.80;;;12.70;66.90;;;;;;5034807;28;20450;-63
2023/05/24 05:09:18;;;;;;;11.15;3.67;;;12.70;66.80;;;;;;5048368;28;20466;-63
2023/05/24 05:11:47;;;;;;;15.73;4.38;;;12.70;66.80;;;;;;5054042;28;20017;-62
2023/05/24 05:14:13;;;;;;;10.57;3.95;;;12.80;66.80;;;;;;5041563;28;20025;-63
2023/05/24 05:16:40;;;;;;;18.50;4.93;;;12.80;66.80;;;;;;5048829;28;20025;-63
2023/05/24 05:19:05;;;;;;;12.93;4.10;;;12.90;66.70;;;;;;5034501;28;20028;-62
2023/05/24 05:21:32;;;;;;;15.20;4.25;;;12.90;66.60;;;;;;5054222;28;20112;-62
2023/05/24 05:23:58;;;;;;;13.35;3.65;;;13.00;66.60;;;;;;5047150;28;20025;-62
2023/05/24 05:26:28;;;;;;;12.13;4.07;;;13.10;66.70;;;;;;5048410;28;20037;-62
2023/05/24 05:28:54;;;;;;;13.75;4.57;;;13.10;66.60;;;;;;5037378;28;20083;-62
2023/05/24 05:31:20;;;;;;;14.13;4.53;;;13.10;66.60;;;;;;5026311;28;20452;-62
2023/05/24 05:33:46;;;;;;;14.07;3.85;;;13.20;66.60;;;;;;5054457;28;20429;-62
2023/05/24 05:36:12;;;;;;;14.77;5.03;;;13.20;66.50;;;;;;5043182;28;20060;-62
2023/05/24 05:38:38;;;;;;;10.48;3.92;;;13.30;66.50;;;;;;5048607;28;20109;-62
2023/05/24 05:41:03;;;;;;;12.10;3.95;;;13.30;66.50;;;;;;5036538;28;20029;-62
2023/05/24 05:43:30;;;;;;;17.25;4.18;;;13.40;66.50;;;;;;5037527;28;20540;-62
2023/05/24 05:45:56;;;;;;;17.30;4.10;;;13.50;66.30;;;;;;5037078;28;20045;-63
2023/05/24 05:48:22;;;;;;;12.60;3.70;;;13.60;66.20;;;;;;5032489;28;20033;-62
2023/05/24 05:50:47;;;;;;;13.63;3.95;;;13.60;66.10;;;;;;5038022;28;20021;-62
2023/05/24 05:53:15;;;;;;;17.30;4.15;;;13.70;66.10;;;;;;5046336;28;20454;-62
2023/05/24 05:55:41;;;;;;;14.13;4.28;;;13.70;66.20;;;;;;5035051;28;20038;-62
2023/05/24 05:58:06;;;;;;;13.18;4.60;;;13.80;66.10;;;;;;5020819;28;20043;-63
2023/05/24 06:00:32;;;;;;;17.58;4.00;;;13.80;66.00;;;;;;5037160;28;20025;-62
2023/05/24 06:02:58;;;;;;;13.30;3.58;;;13.90;66.10;;;;;;5051168;28;20124;-62
2023/05/24 06:05:24;;;;;;;11.07;3.90;;;14.00;66.10;;;;;;5039907;28;20033;-62
2023/05/24 06:07:49;;;;;;;13.20;4.10;;;14.00;66.00;;;;;;5032623;28;20400;-62
2023/05/24 06:10:15;;;;;;;11.43;3.95;;;14.10;65.90;;;;;;5043431;28;20412;-63
2023/05/24 06:12:41;;;;;;;16.17;3.75;;;14.10;65.70;;;;;;5036423;28;20037;-63
2023/05/24 06:15:08;;;;;;;12.25;3.80;;;14.20;65.60;;;;;;5036576;28;20068;-63
2023/05/24 06:17:36;;;;;;;11.35;3.65;;;14.30;65.30;;;;;;5044081;28;20036;-63
2023/05/24 06:20:06;;;;;;;16.38;4.13;;;14.40;65.20;;;;;;5048241;28;20037;-63
2023/05/24 06:22:35;;;;;;;12.80;4.38;;;14.50;65.00;;;;;;5043187;28;20037;-63
2023/05/24 06:25:01;;;;;;;13.20;4.18;;;14.60;64.70;;;;;;5046462;28;20124;-64
2023/05/24 06:27:27;;;;;;;14.13;3.75;;;14.50;64.50;;;;;;5041332;28;20104;-63
2023/05/24 06:29:53;;;;;;;12.55;3.92;;;14.50;64.60;;;;;;5038491;28;20124;-63
2023/05/24 06:32:18;;;;;;;13.32;4.03;;;14.50;64.60;;;;;;5039637;28;20029;-63
2023/05/24 06:34:44;;;;;;;15.38;4.45;;;14.60;64.50;;;;;;5035669;28;20087;-63
2023/05/24 06:37:13;;;;;;;13.75;4.45;;;14.60;64.30;;;;;;5046380;28;20044;-63
2023/05/24 06:39:40;;;;;;;13.13;4.47;;;14.70;64.30;;;;;;5046929;28;20022;-63
2023/05/24 06:42:06;;;;;;;12.77;4.63;;;14.70;64.20;;;;;;5035275;28;20112;-63
2023/05/24 06:44:35;;;;;;;16.90;5.20;;;14.80;63.90;;;;;;5025729;28;20069;-63
2023/05/24 06:47:01;;;;;;;10.32;4.00;;;14.90;63.50;;;;;;5043230;28;20057;-63
2023/05/24 06:49:27;;;;;;;10.95;3.67;;;15.20;63.10;;;;;;5052484;28;20347;-63
2023/05/24 06:51:53;;;;;;;12.93;4.05;;;15.30;62.60;;;;;;5045377;28;20026;-63
2023/05/24 06:54:19;;;;;;;15.40;3.65;;;15.60;62.20;;;;;;5033972;28;20029;-63
2023/05/24 06:56:45;;;;;;;10.13;3.42;;;15.60;62.30;;;;;;5046145;28;20025;-63
2023/05/24 06:59:11;;;;;;;14.65;4.70;;;15.70;61.60;;;;;;5048780;28;20029;-63
2023/05/24 07:01:38;;;;;;;10.88;3.45;;;15.70;61.40;;;;;;5047015;28;20083;-63
2023/05/24 07:04:05;;;;;;;17.27;4.07;;;15.70;61.40;;;;;;5039068;28;20026;-62
2023/05/24 07:06:33;;;;;;;10.85;3.95;;;15.60;61.30;;;;;;5046723;28;20021;-63
2023/05/24 07:09:03;;;;;;;14.52;4.00;;;15.60;61.30;;;;;;5053450;28;20104;-63
2023/05/24 07:11:30;;;;;;;12.35;3.53;;;15.60;61.50;;;;;;5041967;28;20361;-63
2023/05/24 07:13:56;;;;;;;13.18;3.83;;;15.50;61.80;;;;;;5052242;28;20024;-63
2023/05/24 07:16:22;;;;;;;12.13;3.80;;;15.60;61.80;;;;;;5036398;28;20040;-63
2023/05/24 07:18:48;;;;;;;12.73;4.40;;;15.70;61.60;;;;;;5052778;28;20104;-63
2023/05/24 07:21:13;;;;;;;12.88;4.03;;;15.80;61.50;;;;;;5006109;28;20124;-63
2023/05/24 07:23:39;;;;;;;14.38;4.28;;;15.80;61.50;;;;;;5032828;28;20108;-63
2023/05/24 07:26:05;;;;;;;15.30;4.75;;;15.70;61.40;;;;;;5032355;28;20450;-63
2023/05/24 07:28:31;;;;;;;13.82;3.65;;;15.70;61.50;;;;;;5033423;28;20026;-63
2023/05/24 07:30:57;;;;;;;13.35;3.95;;;15.70;61.60;;;;;;5038127;28;20461;-63
2023/05/24 07:33:23;;;;;;;9.40;3.80;;;15.70;62.30;;;;;;5042067;28;20037;-63
2023/05/24 07:35:51;;;;;;;12.95;3.50;;;15.70;61.80;;;;;;5040946;28;20029;-63
2023/05/24 07:38:17;;;;;;;15.23;3.88;;;15.70;61.90;;;;;;5052981;28;20029;-63
2023/05/24 07:40:43;;;;;;;16.33;3.92;;;15.70;62.10;;;;;;5048796;28;20486;-63
2023/05/24 07:43:09;;;;;;;13.65;4.43;;;15.60;62.10;;;;;;5052909;28;20112;-63
2023/05/24 07:45:34;;;;;;;14.75;3.83;;;15.70;62.00;;;;;;5043017;28;20056;-63
2023/05/24 07:48:00;;;;;;;11.85;3.30;;;16.10;61.50;;;;;;5052539;28;20033;-63
2023/05/24 07:50:27;;;;;;;13.60;3.90;;;16.50;60.50;;;;;;5040461;28;20026;-63
2023/05/24 07:52:54;;;;;;;11.65;3.15;;;16.80;59.60;;;;;;5050540;28;20095;-63
2023/05/24 07:55:20;;;;;;;11.98;3.38;;;17.10;59.00;;;;;;5042600;28;20508;-63
2023/05/24 07:57:46;;;;;;;16.05;3.10;;;17.60;58.40;;;;;;5047934;28;20029;-63
2023/05/24 08:00:15;;;;;;;9.57;3.10;;;17.90;57.80;;;;;;5049831;28;20369;-61
2023/05/24 08:02:42;;;;;;;10.98;2.95;;;18.20;56.90;;;;;;5040457;28;20073;-60
2023/05/24 08:05:11;;;;;;;14.95;3.13;;;18.40;56.40;;;;;;5032337;28;20088;-60
2023/05/24 08:07:37;;;;;;;8.50;3.00;;;18.30;56.00;;;;;;5030746;28;20490;-61
2023/05/24 08:10:03;;;;;;;9.82;3.10;;;18.30;55.80;;;;;;5024778;28;20439;-61
2023/05/24 08:12:31;;;;;;;12.43;3.50;;;18.10;55.80;;;;;;5027942;28;20113;-61
2023/05/24 08:14:57;;;;;;;9.45;2.92;;;17.80;56.10;;;;;;5027895;28;20057;-60
2023/05/24 08:17:23;;;;;;;12.68;3.42;;;17.60;56.60;;;;;;5025868;28;20068;-61
2023/05/24 08:19:49;;;;;;;12.95;3.42;;;17.50;56.60;;;;;;5010133;28;20026;-61
2023/05/24 08:22:15;;;;;;;11.18;3.40;;;17.50;56.50;;;;;;5029786;28;20048;-64
2023/05/24 08:24:41;;;;;;;11.05;2.97;;;17.70;56.20;;;;;;5032257;28;20077;-63
2023/05/24 08:27:07;;;;;;;11.20;2.88;;;17.70;56.30;;;;;;5030274;28;20053;-63
2023/05/24 08:29:34;;;;;;;12.50;3.20;;;17.60;55.70;;;;;;5031439;28;20081;-63
2023/05/24 08:32:01;;;;;;;12.73;3.25;;;17.50;55.30;;;;;;5048480;28;20158;-63
2023/05/24 08:34:27;;;;;;;9.77;2.90;;;17.20;55.50;;;;;;5050550;28;20334;-63
2023/05/24 08:36:53;;;;;;;10.63;2.88;;;17.10;56.00;;;;;;5037311;28;20028;-63
2023/05/24 08:39:19;;;;;;;12.45;3.00;;;16.90;56.30;;;;;;5054458;28;20024;-63
2023/05/24 08:41:45;;;;;;;10.32;3.30;;;16.80;56.70;;;;;;5055576;28;20029;-63
2023/05/24 08:44:12;;;;;;;11.25;3.25;;;16.80;56.80;;;;;;5052221;28;20455;-63
2023/05/24 08:46:38;;;;;;;12.10;3.22;;;16.80;56.80;;;;;;5038929;28;20045;-63
2023/05/24 08:49:04;;;;;;;11.85;3.85;;;16.80;56.80;;;;;;5050487;28;20081;-63
2023/05/24 08:51:31;;;;;;;11.35;3.55;;;16.80;56.90;;;;;;5047276;28;20108;-63
2023/05/24 08:54:00;;;;;;;10.70;3.25;;;16.90;56.90;;;;;;5053405;28;20511;-63
2023/05/24 08:56:30;;;;;;;11.95;3.15;;;16.90;56.70;;;;;;5052712;28;20021;-63
2023/05/24 08:58:56;;;;;;;8.65;2.63;;;16.80;56.70;;;;;;5038288;28;20036;-64
2023/05/24 09:01:23;;;;;;;9.10;3.13;;;16.80;56.60;;;;;;5023033;28;20378;-63
2023/05/24 09:03:50;;;;;;;12.57;3.10;;;16.80;56.60;;;;;;5052045;28;20025;-63
2023/05/24 09:06:18;;;;;;;9.13;2.60;;;16.80;56.60;;;;;;5045577;28;20036;-63
2023/05/24 09:08:44;;;;;;;10.50;2.83;;;16.80;56.70;;;;;;5032277;28;20168;-63
2023/05/24 09:11:10;;;;;;;11.05;3.30;;;16.90;56.70;;;;;;5025897;28;20040;-63
2023/05/24 09:13:36;;;;;;;8.82;2.58;;;16.90;56.30;;;;;;5031555;28;20034;-63
2023/05/24 09:16:02;;;;;;;9.52;2.50;;;16.90;56.10;;;;;;5031093;28;20034;-63
2023/05/24 09:18:29;;;;;;;9.98;3.13;;;16.90;55.90;;;;;;5031207;28;20346;-63
2023/05/24 09:20:54;;;;;;;10.52;2.97;;;16.90;55.80;;;;;;5031489;28;20021;-64
2023/05/24 09:23:21;;;;;;;11.75;2.97;;;16.90;55.70;;;;;;5036586;28;20195;-64
2023/05/24 09:25:47;;;;;;;10.00;2.28;;;16.80;55.50;;;;;;5036994;28;20041;-63
2023/05/24 09:28:16;;;;;;;10.48;2.67;;;16.90;55.50;;;;;;5025552;28;20022;-63
2023/05/24 09:30:56;;;;;;;9.18;2.72;;;16.90;55.20;;;;;;5024164;28;20029;-64
2023/05/24 09:33:22;;;;;;;8.85;2.40;;;17.00;55.20;;;;;;5030898;28;20446;-63
2023/05/24 09:35:48;;;;;;;9.48;3.10;;;17.00;55.10;;;;;;5030362;28;20029;-64
2023/05/24 09:38:18;;;;;;;11.25;2.80;;;17.00;54.80;;;;;;5029724;28;20049;-63
2023/05/24 09:40:44;;;;;;;9.10;2.42;;;17.00;54.70;;;;;;5043856;28;20087;-64
2023/05/24 09:43:10;;;;;;;10.00;2.65;;;17.00;54.80;;;;;;5029135;28;20033;-63
2023/05/24 09:45:47;;;;;;;11.73;2.80;;;17.00;54.70;;;;;;5029486;28;20481;-64
2023/05/24 09:48:16;;;;;;;9.23;2.67;;;17.00;54.70;;;;;;5028462;28;20374;-64
2023/05/24 09:50:44;;;;;;;10.60;2.80;;;17.00;54.90;;;;;;5030034;28;20025;-64
2023/05/24 09:53:10;;;;;;;11.82;3.28;;;17.10;55.00;;;;;;5030483;28;20346;-63
2023/05/24 09:55:36;;;;;;;9.85;3.05;;;17.10;55.00;;;;;;5028244;28;20447;-63
2023/05/24 09:58:04;;;;;;;12.73;2.53;;;17.10;54.90;;;;;;5028331;28;20052;-63
2023/05/24 10:00:35;;;;;;;7.18;2.53;;;17.10;54.70;;;;;;5029095;28;20048;-63
2023/05/24 10:03:13;;;;;;;6.72;2.30;;;17.10;54.60;;;;;;5028726;28;20115;-63
2023/05/24 10:05:43;;;;;;;9.98;2.70;;;17.10;54.60;;;;;;5024574;28;20042;-63
2023/05/24 10:08:10;;;;;;;8.98;2.67;;;17.10;54.50;;;;;;5030524;28;20033;-63
2023/05/24 10:10:36;;;;;;;9.02;2.95;;;17.10;54.50;;;;;;5030163;28;20021;-64
2023/05/24 10:13:02;;;;;;;8.90;3.10;;;17.10;54.50;;;;;;5024654;28;20032;-63
2023/05/24 10:15:29;;;;;;;9.30;2.55;;;17.20;54.40;;;;;;5011464;28;20462;-63
2023/05/24 10:17:56;;;;;;;10.77;2.40;;;17.10;54.30;;;;;;5020172;28;20231;-63
2023/05/24 10:20:25;;;;;;;7.65;2.10;;;17.10;54.30;;;;;;5013039;28;20025;-64
2023/05/24 10:22:54;;;;;;;8.95;2.85;;;17.10;54.60;;;;;;5028698;28;20391;-63
2023/05/24 10:25:22;;;;;;;9.45;2.58;;;17.10;54.50;;;;;;5028465;28;21153;-63
2023/05/24 10:27:50;;;;;;;7.57;2.53;;;17.00;54.40;;;;;;5029219;28;20474;-63
2023/05/24 10:30:45;;;;;;;10.80;2.85;;;17.00;54.40;;;;;;5031185;28;20049;-64
2023/05/24 10:33:12;;;;;;;8.25;2.30;;;17.00;54.30;;;;;;5036284;28;20021;-63
2023/05/24 10:35:39;;;;;;;6.90;2.35;;;17.00;54.30;;;;;;5028845;28;20112;-63
2023/05/24 10:38:06;;;;;;;12.48;2.97;;;17.00;54.30;;;;;;5030419;28;20033;-63
2023/05/24 10:40:32;;;;;;;9.10;2.80;;;17.00;54.20;;;;;;5029401;28;20486;-63
2023/05/24 10:42:59;;;;;;;7.10;2.35;;;17.10;54.20;;;;;;5028563;28;20059;-63
2023/05/24 10:45:35;;;;;;;7.68;2.45;;;17.20;54.10;;;;;;5029034;28;20041;-63
2023/05/24 10:48:27;;;;;;;10.15;2.65;;;17.30;53.80;;;;;;5029149;28;20730;-63
2023/05/24 10:50:53;;;;;;;7.25;2.70;;;17.40;53.70;;;;;;5033909;28;20034;-63
2023/05/24 10:53:21;;;;;;;7.72;2.33;;;17.80;53.30;;;;;;5028119;28;20595;-63
2023/05/24 10:56:03;;;;;;;9.48;2.47;;;18.40;52.70;;;;;;5026609;28;20025;-63
2023/05/24 10:58:53;;;;;;;10.65;2.35;;;18.90;52.10;;;;;;5025488;28;20462;-63
2023/05/24 11:01:26;;;;;;;7.07;2.22;;;19.40;51.10;;;;;;5015162;28;20030;-63
2023/05/24 11:04:04;;;;;;;6.78;2.15;;;19.60;50.60;;;;;;5027772;28;20025;-63
2023/05/24 11:06:49;;;;;;;7.10;2.50;;;19.60;50.20;;;;;;5028314;28;20041;-63
2023/05/24 11:09:16;;;;;;;8.90;2.85;;;19.50;50.00;;;;;;5022968;28;20398;-63
2023/05/24 11:11:52;;;;;;;11.70;3.08;;;19.30;50.30;;;;;;5026243;28;20029;-64
2023/05/24 11:14:26;;;;;;;8.15;3.10;;;19.10;50.40;;;;;;5043415;28;20021;-63
2023/05/24 11:16:52;;;;;;;10.25;2.50;;;19.10;50.40;;;;;;5023940;28;20018;-62
2023/05/24 11:19:20;;;;;;;8.55;2.90;;;19.00;50.20;;;;;;5024586;28;20360;-62
2023/05/24 11:21:52;;;;;;;9.50;2.60;;;19.00;50.20;;;;;;5033847;28;20152;-62
2023/05/24 11:24:18;;;;;;;5.95;2.25;;;19.00;50.30;;;;;;5032957;28;20430;-62
2023/05/24 11:26:45;;;;;;;8.63;2.80;;;18.90;50.40;;;;;;5032727;28;20025;-62
2023/05/24 11:29:20;;;;;;;12.60;2.75;;;19.00;50.60;;;;;;5033622;28;20417;-63
2023/05/24 11:32:03;;;;;;;11.82;3.38;;;19.00;50.50;;;;;;5044738;28;20100;-62
2023/05/24 11:34:30;;;;;;;8.02;2.58;;;19.00;50.60;;;;;;5053589;28;20166;-62
2023/05/24 11:36:57;;;;;;;6.90;2.40;;;19.00;50.50;;;;;;5052673;28;20090;-63
2023/05/24 11:39:27;;;;;;;8.70;2.42;;;19.00;50.30;;;;;;5047578;28;20029;-62
2023/05/24 11:41:53;;;;;;;6.60;2.25;;;19.00;50.20;;;;;;5045242;28;20065;-63
2023/05/24 11:44:20;;;;;;;8.43;2.28;;;19.10;50.10;;;;;;5053780;28;20028;-64
2023/05/24 11:46:46;;;;;;;8.05;2.63;;;19.00;50.10;;;;;;5046677;28;20028;-63
2023/05/24 11:49:14;;;;;;;8.25;2.70;;;18.90;50.30;;;;;;5048392;28;20056;-62
2023/05/24 11:51:40;;;;;;;7.47;2.65;;;18.80;50.50;;;;;;5053979;28;20036;-63
2023/05/24 11:54:05;;;;;;;7.72;2.20;;;18.80;50.70;;;;;;5052776;28;20021;-63
2023/05/24 11:56:32;;;;;;;7.70;2.53;;;18.80;50.60;;;;;;5033346;28;20032;-63
2023/05/24 11:59:27;;;;;;;6.60;2.28;;;18.90;50.50;;;;;;5034083;28;20040;-62
2023/05/24 12:02:01;;;;;;;7.45;2.42;;;19.00;50.60;;;;;;5034112;28;20029;-63
2023/05/24 12:04:27;;;;;;;8.43;2.47;;;19.10;50.80;;;;;;5033838;28;20048;-62
2023/05/24 12:06:54;;;;;;;10.15;2.78;;;19.30;50.60;;;;;;5035891;28;20041;-63
2023/05/24 12:09:21;;;;;;;6.90;2.63;;;19.30;50.40;;;;;;5032773;28;20079;-62
2023/05/24 12:11:49;;;;;;;9.15;2.95;;;19.30;50.20;;;;;;5038180;28;20096;-63
2023/05/24 12:14:27;;;;;;;6.72;2.40;;;19.30;50.10;;;;;;5036768;28;20461;-63
2023/05/24 12:16:56;;;;;;;9.13;2.60;;;19.30;49.90;;;;;;5030900;28;20022;-63
2023/05/24 12:19:28;;;;;;;10.27;2.20;;;19.30;50.60;;;;;;5024453;28;20030;-62
2023/05/24 12:21:55;;;;;;;9.88;3.33;;;19.30;50.00;;;;;;5037898;28;20102;-63
2023/05/24 12:24:23;;;;;;;7.47;2.63;;;19.40;50.00;;;;;;5037599;28;20164;-62
2023/05/24 12:26:49;;;;;;;11.18;3.08;;;19.50;50.00;;;;;;5026248;28;20033;-63
2023/05/24 12:29:16;;;;;;;8.48;2.65;;;19.50;49.70;;;;;;5036616;28;20076;-62
2023/05/24 12:31:43;;;;;;;7.65;2.38;;;19.50;49.80;;;;;;5047828;28;20044;-62
2023/05/24 12:34:14;;;;;;;7.93;2.47;;;19.50;49.80;;;;;;5057463;28;20085;-62
2023/05/24 12:36:41;;;;;;;11.88;3.15;;;19.50;49.90;;;;;;5057629;28;20390;-63
2023/05/24 12:39:30;;;;;;;9.73;2.70;;;19.40;50.10;;;;;;5051931;28;20453;-62
2023/05/24 12:41:57;;;;;;;9.98;2.47;;;19.30;50.10;;;;;;5056349;28;20442;-62
2023/05/24 12:44:41;;;;;;;7.45;2.60;;;19.30;50.10;;;;;;5057097;28;20099;-62